sensor_id;sensor_type;location;lat;lon;timestamp;temperature;humidity
65989;HTU21D;53592;51.402;6.054;2023-04-24T00:01:38;11.72;77.97
65989;HTU21D;53592;51.402;6.054;2023-04-24T00:04:05;11.71;77.83
65989;HTU21D;53592;51.402;6.054;2023-04-24T00:06:31;11.66;77.79
65989;HTU21D;53592;51.402;6.054;2023-04-24T00:09:00;11.62;77.63
65989;HTU21D;53592;51.402;6.054;2023-04-24T00:11:26;11.66;77.40
65989;HTU21D;53592;51.402;6.054;2023-04-24T00:13:52;11.63;77.53
65989;HTU21D;53592;51.402;6.054;2023-04-24T00:16:18;11.66;77.25
65989;HTU21D;53592;51.402;6.054;2023-04-24T00:18:44;11.64;77.11
65989;HTU21D;53592;51.402;6.054;2023-04-24T00:21:10;11.61;77.28
65989;HTU21D;53592;51.402;6.054;2023-04-24T00:23:36;11.56;77.24
65989;HTU21D;53592;51.402;6.054;2023-04-24T00:26:01;11.54;76.76
65989;HTU21D;53592;51.402;6.054;2023-04-24T00:28:27;11.46;77.15
65989;HTU21D;53592;51.402;6.054;2023-04-24T00:30:52;11.43;77.37
65989;HTU21D;53592;51.402;6.054;2023-04-24T00:33:18;11.40;77.40
65989;HTU21D;53592;51.402;6.054;2023-04-24T00:35:43;11.54;76.37
65989;HTU21D;53592;51.402;6.054;2023-04-24T00:38:09;11.38;76.83
65989;HTU21D;53592;51.402;6.054;2023-04-24T00:40:35;11.33;76.79
65989;HTU21D;53592;51.402;6.054;2023-04-24T00:43:00;11.29;77.31
65989;HTU21D;53592;51.402;6.054;2023-04-24T00:45:26;11.39;77.07
65989;HTU21D;53592;51.402;6.054;2023-04-24T00:47:53;11.31;76.94
65989;HTU21D;53592;51.402;6.054;2023-04-24T00:50:18;11.32;76.69
65989;HTU21D;53592;51.402;6.054;2023-04-24T00:52:44;11.24;77.28
65989;HTU21D;53592;51.402;6.054;2023-04-24T00:55:10;11.28;77.36
65989;HTU21D;53592;51.402;6.054;2023-04-24T00:57:37;11.25;77.28
65989;HTU21D;53592;51.402;6.054;2023-04-24T01:00:05;11.26;76.84
65989;HTU21D;53592;51.402;6.054;2023-04-24T01:02:31;11.22;77.15
65989;HTU21D;53592;51.402;6.054;2023-04-24T01:05:00;11.22;77.15
65989;HTU21D;53592;51.402;6.054;2023-04-24T01:07:27;11.26;76.75
65989;HTU21D;53592;51.402;6.054;2023-04-24T01:09:53;11.19;77.05
65989;HTU21D;53592;51.402;6.054;2023-04-24T01:12:19;11.17;77.25
65989;HTU21D;53592;51.402;6.054;2023-04-24T01:14:45;11.15;77.27
65989;HTU21D;53592;51.402;6.054;2023-04-24T01:17:11;11.15;77.22
65989;HTU21D;53592;51.402;6.054;2023-04-24T01:19:37;11.12;77.31
65989;HTU21D;53592;51.402;6.054;2023-04-24T01:22:09;11.14;77.21
65989;HTU21D;53592;51.402;6.054;2023-04-24T01:24:36;11.09;77.40
65989;HTU21D;53592;51.402;6.054;2023-04-24T01:27:02;11.09;77.78
65989;HTU21D;53592;51.402;6.054;2023-04-24T01:29:27;11.05;78.12
65989;HTU21D;53592;51.402;6.054;2023-04-24T01:31:54;11.12;78.11
65989;HTU21D;53592;51.402;6.054;2023-04-24T01:34:20;11.05;78.33
65989;HTU21D;53592;51.402;6.054;2023-04-24T01:36:46;11.09;78.55
65989;HTU21D;53592;51.402;6.054;2023-04-24T01:39:13;11.00;79.07
65989;HTU21D;53592;51.402;6.054;2023-04-24T01:41:38;11.04;79.08
65989;HTU21D;53592;51.402;6.054;2023-04-24T01:44:04;11.01;79.12
65989;HTU21D;53592;51.402;6.054;2023-04-24T01:46:30;10.96;79.68
65989;HTU21D;53592;51.402;6.054;2023-04-24T01:49:00;10.98;79.57
65989;HTU21D;53592;51.402;6.054;2023-04-24T01:51:25;10.96;79.53
65989;HTU21D;53592;51.402;6.054;2023-04-24T01:53:52;10.92;79.57
65989;HTU21D;53592;51.402;6.054;2023-04-24T01:56:20;11.01;79.27
65989;HTU21D;53592;51.402;6.054;2023-04-24T01:58:47;10.96;79.46
65989;HTU21D;53592;51.402;6.054;2023-04-24T02:01:20;10.97;79.30
65989;HTU21D;53592;51.402;6.054;2023-04-24T02:03:46;10.97;79.24
65989;HTU21D;53592;51.402;6.054;2023-04-24T02:06:12;10.95;79.24
65989;HTU21D;53592;51.402;6.054;2023-04-24T02:08:37;10.92;79.49
65989;HTU21D;53592;51.402;6.054;2023-04-24T02:11:03;10.95;79.58
65989;HTU21D;53592;51.402;6.054;2023-04-24T02:13:29;10.99;79.31
65989;HTU21D;53592;51.402;6.054;2023-04-24T02:15:54;10.99;79.30
65989;HTU21D;53592;51.402;6.054;2023-04-24T02:18:20;10.94;79.62
65989;HTU21D;53592;51.402;6.054;2023-04-24T02:20:45;10.96;79.35
65989;HTU21D;53592;51.402;6.054;2023-04-24T02:23:11;11.02;79.22
65989;HTU21D;53592;51.402;6.054;2023-04-24T02:25:36;11.03;79.17
65989;HTU21D;53592;51.402;6.054;2023-04-24T02:28:02;10.99;79.35
65989;HTU21D;53592;51.402;6.054;2023-04-24T02:30:28;11.00;79.45
65989;HTU21D;53592;51.402;6.054;2023-04-24T02:32:53;11.04;79.15
65989;HTU21D;53592;51.402;6.054;2023-04-24T02:35:19;11.02;79.12
65989;HTU21D;53592;51.402;6.054;2023-04-24T02:37:45;11.01;79.26
65989;HTU21D;53592;51.402;6.054;2023-04-24T02:40:10;11.02;79.25
65989;HTU21D;53592;51.402;6.054;2023-04-24T02:42:36;11.04;79.18
65989;HTU21D;53592;51.402;6.054;2023-04-24T02:45:02;11.07;78.94
65989;HTU21D;53592;51.402;6.054;2023-04-24T02:47:27;11.05;79.03
65989;HTU21D;53592;51.402;6.054;2023-04-24T02:49:52;11.08;78.65
65989;HTU21D;53592;51.402;6.054;2023-04-24T02:52:18;11.10;78.55
65989;HTU21D;53592;51.402;6.054;2023-04-24T02:54:43;11.00;78.81
65989;HTU21D;53592;51.402;6.054;2023-04-24T02:57:09;11.00;78.85
65989;HTU21D;53592;51.402;6.054;2023-04-24T02:59:35;10.97;79.01
65989;HTU21D;53592;51.402;6.054;2023-04-24T03:02:00;10.98;78.88
65989;HTU21D;53592;51.402;6.054;2023-04-24T03:04:25;10.94;79.09
65989;HTU21D;53592;51.402;6.054;2023-04-24T03:06:52;11.00;78.67
65989;HTU21D;53592;51.402;6.054;2023-04-24T03:09:20;10.94;78.87
65989;HTU21D;53592;51.402;6.054;2023-04-24T03:11:46;10.89;78.90
65989;HTU21D;53592;51.402;6.054;2023-04-24T03:14:12;10.89;79.15
65989;HTU21D;53592;51.402;6.054;2023-04-24T03:16:37;10.93;79.09
65989;HTU21D;53592;51.402;6.054;2023-04-24T03:19:03;10.95;78.85
65989;HTU21D;53592;51.402;6.054;2023-04-24T03:21:28;10.97;78.61
65989;HTU21D;53592;51.402;6.054;2023-04-24T03:23:54;10.95;78.83
65989;HTU21D;53592;51.402;6.054;2023-04-24T03:26:20;10.95;78.66
65989;HTU21D;53592;51.402;6.054;2023-04-24T03:28:45;10.93;78.71
65989;HTU21D;53592;51.402;6.054;2023-04-24T03:31:10;10.94;78.85
65989;HTU21D;53592;51.402;6.054;2023-04-24T03:33:36;10.99;78.44
65989;HTU21D;53592;51.402;6.054;2023-04-24T03:36:01;11.01;78.21
65989;HTU21D;53592;51.402;6.054;2023-04-24T03:38:27;10.94;78.34
65989;HTU21D;53592;51.402;6.054;2023-04-24T03:40:53;10.95;78.19
65989;HTU21D;53592;51.402;6.054;2023-04-24T03:43:18;10.93;78.34
65989;HTU21D;53592;51.402;6.054;2023-04-24T03:45:44;10.86;78.68
65989;HTU21D;53592;51.402;6.054;2023-04-24T03:48:09;10.94;78.31
65989;HTU21D;53592;51.402;6.054;2023-04-24T03:50:34;10.83;78.87
65989;HTU21D;53592;51.402;6.054;2023-04-24T03:53:00;10.84;78.50
65989;HTU21D;53592;51.402;6.054;2023-04-24T03:55:25;10.85;78.41
65989;HTU21D;53592;51.402;6.054;2023-04-24T03:57:51;10.85;78.40
65989;HTU21D;53592;51.402;6.054;2023-04-24T04:00:16;10.75;78.95
65989;HTU21D;53592;51.402;6.054;2023-04-24T04:02:42;10.75;78.95
65989;HTU21D;53592;51.402;6.054;2023-04-24T04:05:07;10.82;78.40
65989;HTU21D;53592;51.402;6.054;2023-04-24T04:07:33;10.81;78.36
65989;HTU21D;53592;51.402;6.054;2023-04-24T04:09:59;10.69;78.90
65989;HTU21D;53592;51.402;6.054;2023-04-24T04:12:24;10.71;78.85
65989;HTU21D;53592;51.402;6.054;2023-04-24T04:14:50;10.71;78.81
65989;HTU21D;53592;51.402;6.054;2023-04-24T04:17:15;10.72;78.55
65989;HTU21D;53592;51.402;6.054;2023-04-24T04:19:41;10.68;78.92
65989;HTU21D;53592;51.402;6.054;2023-04-24T04:22:07;10.67;79.08
65989;HTU21D;53592;51.402;6.054;2023-04-24T04:24:33;10.69;78.73
65989;HTU21D;53592;51.402;6.054;2023-04-24T04:27:03;10.67;78.75
65989;HTU21D;53592;51.402;6.054;2023-04-24T04:29:30;10.63;78.79
65989;HTU21D;53592;51.402;6.054;2023-04-24T04:31:57;10.65;78.94
65989;HTU21D;53592;51.402;6.054;2023-04-24T04:34:22;10.63;78.78
65989;HTU21D;53592;51.402;6.054;2023-04-24T04:36:48;10.57;79.01
65989;HTU21D;53592;51.402;6.054;2023-04-24T04:39:14;10.59;79.03
65989;HTU21D;53592;51.402;6.054;2023-04-24T04:41:44;10.60;78.84
65989;HTU21D;53592;51.402;6.054;2023-04-24T04:44:11;10.57;78.96
65989;HTU21D;53592;51.402;6.054;2023-04-24T04:46:38;10.54;79.24
65989;HTU21D;53592;51.402;6.054;2023-04-24T04:49:04;10.50;79.49
65989;HTU21D;53592;51.402;6.054;2023-04-24T04:51:29;10.52;79.52
65989;HTU21D;53592;51.402;6.054;2023-04-24T04:53:55;10.49;79.62
65989;HTU21D;53592;51.402;6.054;2023-04-24T04:56:20;10.49;79.78
65989;HTU21D;53592;51.402;6.054;2023-04-24T04:58:47;10.46;80.24
65989;HTU21D;53592;51.402;6.054;2023-04-24T05:01:12;10.45;80.59
65989;HTU21D;53592;51.402;6.054;2023-04-24T05:03:37;10.44;80.82
65989;HTU21D;53592;51.402;6.054;2023-04-24T05:06:57;10.41;81.02
65989;HTU21D;53592;51.402;6.054;2023-04-24T05:09:16;10.38;81.24
65989;HTU21D;53592;51.402;6.054;2023-04-24T05:11:42;10.28;81.98
65989;HTU21D;53592;51.402;6.054;2023-04-24T05:14:07;10.26;82.26
65989;HTU21D;53592;51.402;6.054;2023-04-24T05:16:33;10.28;82.32
65989;HTU21D;53592;51.402;6.054;2023-04-24T05:18:58;10.28;82.71
65989;HTU21D;53592;51.402;6.054;2023-04-24T05:21:24;10.22;82.55
65989;HTU21D;53592;51.402;6.054;2023-04-24T05:23:50;10.19;82.50
65989;HTU21D;53592;51.402;6.054;2023-04-24T05:26:15;10.15;82.86
65989;HTU21D;53592;51.402;6.054;2023-04-24T05:28:41;10.16;83.15
65989;HTU21D;53592;51.402;6.054;2023-04-24T05:31:06;10.14;83.25
65989;HTU21D;53592;51.402;6.054;2023-04-24T05:33:32;10.09;83.36
65989;HTU21D;53592;51.402;6.054;2023-04-24T05:36:00;10.10;83.61
65989;HTU21D;53592;51.402;6.054;2023-04-24T05:38:28;10.05;83.75
65989;HTU21D;53592;51.402;6.054;2023-04-24T05:41:10;10.01;83.86
65989;HTU21D;53592;51.402;6.054;2023-04-24T05:43:36;10.06;83.87
65989;HTU21D;53592;51.402;6.054;2023-04-24T05:46:01;10.04;84.00
65989;HTU21D;53592;51.402;6.054;2023-04-24T05:48:27;10.08;84.10
65989;HTU21D;53592;51.402;6.054;2023-04-24T05:50:55;10.03;84.11
65989;HTU21D;53592;51.402;6.054;2023-04-24T05:53:20;9.96;84.73
65989;HTU21D;53592;51.402;6.054;2023-04-24T05:55:47;9.96;84.90
65989;HTU21D;53592;51.402;6.054;2023-04-24T05:58:12;9.98;84.77
65989;HTU21D;53592;51.402;6.054;2023-04-24T06:00:38;10.09;84.22
65989;HTU21D;53592;51.402;6.054;2023-04-24T06:03:07;10.05;84.59
65989;HTU21D;53592;51.402;6.054;2023-04-24T06:05:33;9.99;84.83
65989;HTU21D;53592;51.402;6.054;2023-04-24T06:07:59;10.05;84.48
65989;HTU21D;53592;51.402;6.054;2023-04-24T06:10:24;10.05;84.14
65989;HTU21D;53592;51.402;6.054;2023-04-24T06:12:50;10.04;84.23
65989;HTU21D;53592;51.402;6.054;2023-04-24T06:15:16;10.01;84.03
65989;HTU21D;53592;51.402;6.054;2023-04-24T06:17:42;10.01;84.01
65989;HTU21D;53592;51.402;6.054;2023-04-24T06:20:07;10.09;83.68
65989;HTU21D;53592;51.402;6.054;2023-04-24T06:22:33;10.09;83.45
65989;HTU21D;53592;51.402;6.054;2023-04-24T06:25:00;10.09;83.30
65989;HTU21D;53592;51.402;6.054;2023-04-24T06:27:25;10.07;83.32
65989;HTU21D;53592;51.402;6.054;2023-04-24T06:29:51;10.08;83.36
65989;HTU21D;53592;51.402;6.054;2023-04-24T06:32:22;10.03;83.39
65989;HTU21D;53592;51.402;6.054;2023-04-24T06:34:47;10.00;83.28
65989;HTU21D;53592;51.402;6.054;2023-04-24T06:37:14;9.95;83.60
65989;HTU21D;53592;51.402;6.054;2023-04-24T06:39:40;9.92;83.68
65989;HTU21D;53592;51.402;6.054;2023-04-24T06:42:06;9.92;83.65
65989;HTU21D;53592;51.402;6.054;2023-04-24T06:44:31;9.92;83.73
65989;HTU21D;53592;51.402;6.054;2023-04-24T06:46:57;9.90;83.73
65989;HTU21D;53592;51.402;6.054;2023-04-24T06:49:31;9.86;83.74
65989;HTU21D;53592;51.402;6.054;2023-04-24T06:51:57;9.83;83.87
65989;HTU21D;53592;51.402;6.054;2023-04-24T06:54:22;9.80;83.87
65989;HTU21D;53592;51.402;6.054;2023-04-24T06:56:48;9.67;84.26
65989;HTU21D;53592;51.402;6.054;2023-04-24T06:59:15;9.70;84.42
65989;HTU21D;53592;51.402;6.054;2023-04-24T07:01:40;9.71;84.42
65989;HTU21D;53592;51.402;6.054;2023-04-24T07:04:06;9.76;84.42
65989;HTU21D;53592;51.402;6.054;2023-04-24T07:06:31;9.75;84.65
65989;HTU21D;53592;51.402;6.054;2023-04-24T07:08:58;9.79;84.63
65989;HTU21D;53592;51.402;6.054;2023-04-24T07:11:24;9.82;84.67
65989;HTU21D;53592;51.402;6.054;2023-04-24T07:13:55;9.85;84.58
65989;HTU21D;53592;51.402;6.054;2023-04-24T07:16:21;9.89;84.52
65989;HTU21D;53592;51.402;6.054;2023-04-24T07:18:46;9.88;84.72
65989;HTU21D;53592;51.402;6.054;2023-04-24T07:21:12;9.92;84.70
65989;HTU21D;53592;51.402;6.054;2023-04-24T07:23:38;9.96;84.68
65989;HTU21D;53592;51.402;6.054;2023-04-24T07:26:04;9.98;84.60
65989;HTU21D;53592;51.402;6.054;2023-04-24T07:28:29;10.00;84.52
65989;HTU21D;53592;51.402;6.054;2023-04-24T07:30:58;10.04;84.65
65989;HTU21D;53592;51.402;6.054;2023-04-24T07:33:25;10.10;84.50
65989;HTU21D;53592;51.402;6.054;2023-04-24T07:35:51;10.12;84.40
65989;HTU21D;53592;51.402;6.054;2023-04-24T07:38:18;10.14;84.57
65989;HTU21D;53592;51.402;6.054;2023-04-24T07:40:49;10.21;84.62
65989;HTU21D;53592;51.402;6.054;2023-04-24T07:43:15;10.29;84.52
65989;HTU21D;53592;51.402;6.054;2023-04-24T07:45:40;10.34;84.47
65989;HTU21D;53592;51.402;6.054;2023-04-24T07:48:06;10.40;84.43
65989;HTU21D;53592;51.402;6.054;2023-04-24T07:50:32;10.40;84.32
65989;HTU21D;53592;51.402;6.054;2023-04-24T07:52:57;10.40;84.36
65989;HTU21D;53592;51.402;6.054;2023-04-24T07:55:23;10.41;84.29
65989;HTU21D;53592;51.402;6.054;2023-04-24T07:57:48;10.33;84.51
65989;HTU21D;53592;51.402;6.054;2023-04-24T08:00:14;10.27;84.94
65989;HTU21D;53592;51.402;6.054;2023-04-24T08:02:40;10.18;85.06
65989;HTU21D;53592;51.402;6.054;2023-04-24T08:05:06;10.16;84.99
65989;HTU21D;53592;51.402;6.054;2023-04-24T08:07:32;10.09;85.22
65989;HTU21D;53592;51.402;6.054;2023-04-24T08:09:58;10.06;85.45
65989;HTU21D;53592;51.402;6.054;2023-04-24T08:26:07;9.86;85.03
65989;HTU21D;53592;51.402;6.054;2023-04-24T08:32:17;9.84;85.47
65989;HTU21D;53592;51.402;6.054;2023-04-24T08:38:15;9.89;85.40
65989;HTU21D;53592;51.402;6.054;2023-04-24T08:40:44;9.82;85.60
65989;HTU21D;53592;51.402;6.054;2023-04-24T08:43:31;9.86;85.33
65989;HTU21D;53592;51.402;6.054;2023-04-24T08:46:54;9.85;85.40
65989;HTU21D;53592;51.402;6.054;2023-04-24T08:49:54;9.90;85.46
65989;HTU21D;53592;51.402;6.054;2023-04-24T08:56:40;9.96;84.98
65989;HTU21D;53592;51.402;6.054;2023-04-24T09:02:34;9.99;85.03
65989;HTU21D;53592;51.402;6.054;2023-04-24T09:05:00;10.00;85.38
65989;HTU21D;53592;51.402;6.054;2023-04-24T09:07:30;10.03;85.60
65989;HTU21D;53592;51.402;6.054;2023-04-24T09:09:57;10.04;85.69
65989;HTU21D;53592;51.402;6.054;2023-04-24T09:12:22;10.11;85.56
65989;HTU21D;53592;51.402;6.054;2023-04-24T09:14:48;10.13;85.64
65989;HTU21D;53592;51.402;6.054;2023-04-24T09:17:13;10.19;85.65
65989;HTU21D;53592;51.402;6.054;2023-04-24T09:19:40;10.16;85.78
65989;HTU21D;53592;51.402;6.054;2023-04-24T09:22:07;10.23;85.87
65989;HTU21D;53592;51.402;6.054;2023-04-24T09:24:34;10.28;85.48
65989;HTU21D;53592;51.402;6.054;2023-04-24T09:27:01;10.27;85.05
65989;HTU21D;53592;51.402;6.054;2023-04-24T09:29:27;10.29;84.75
65989;HTU21D;53592;51.402;6.054;2023-04-24T09:31:53;10.28;85.14
65989;HTU21D;53592;51.402;6.054;2023-04-24T09:34:25;10.27;84.96
65989;HTU21D;53592;51.402;6.054;2023-04-24T09:36:51;10.27;84.77
65989;HTU21D;53592;51.402;6.054;2023-04-24T09:39:17;10.26;84.52
65989;HTU21D;53592;51.402;6.054;2023-04-24T09:41:47;10.20;84.53
65989;HTU21D;53592;51.402;6.054;2023-04-24T09:44:16;10.23;84.52
65989;HTU21D;53592;51.402;6.054;2023-04-24T09:46:44;10.26;83.90
65989;HTU21D;53592;51.402;6.054;2023-04-24T09:49:15;10.20;84.07
65989;HTU21D;53592;51.402;6.054;2023-04-24T09:51:42;10.16;84.13
65989;HTU21D;53592;51.402;6.054;2023-04-24T09:54:25;10.16;84.27
65989;HTU21D;53592;51.402;6.054;2023-04-24T09:56:51;10.16;84.42
65989;HTU21D;53592;51.402;6.054;2023-04-24T09:59:18;10.19;84.41
65989;HTU21D;53592;51.402;6.054;2023-04-24T10:01:45;10.18;84.31
65989;HTU21D;53592;51.402;6.054;2023-04-24T10:04:19;10.16;84.36
65989;HTU21D;53592;51.402;6.054;2023-04-24T10:06:45;10.15;84.42
65989;HTU21D;53592;51.402;6.054;2023-04-24T10:09:11;10.19;84.35
65989;HTU21D;53592;51.402;6.054;2023-04-24T10:11:42;10.22;84.13
65989;HTU21D;53592;51.402;6.054;2023-04-24T10:14:10;10.25;84.24
65989;HTU21D;53592;51.402;6.054;2023-04-24T10:16:38;10.30;83.74
65989;HTU21D;53592;51.402;6.054;2023-04-24T10:19:05;10.34;83.53
65989;HTU21D;53592;51.402;6.054;2023-04-24T10:21:32;10.34;83.42
65989;HTU21D;53592;51.402;6.054;2023-04-24T10:23:58;10.35;82.61
65989;HTU21D;53592;51.402;6.054;2023-04-24T10:26:26;10.30;82.58
65989;HTU21D;53592;51.402;6.054;2023-04-24T10:28:54;10.29;82.42
65989;HTU21D;53592;51.402;6.054;2023-04-24T10:31:21;10.30;81.47
65989;HTU21D;53592;51.402;6.054;2023-04-24T10:33:47;10.22;80.93
65989;HTU21D;53592;51.402;6.054;2023-04-24T10:36:16;10.30;81.59
65989;HTU21D;53592;51.402;6.054;2023-04-24T10:38:45;10.34;81.09
65989;HTU21D;53592;51.402;6.054;2023-04-24T10:41:12;10.37;81.53
65989;HTU21D;53592;51.402;6.054;2023-04-24T10:43:45;10.51;81.17
65989;HTU21D;53592;51.402;6.054;2023-04-24T10:46:19;10.66;81.12
65989;HTU21D;53592;51.402;6.054;2023-04-24T10:48:53;10.84;80.43
65989;HTU21D;53592;51.402;6.054;2023-04-24T10:51:22;11.09;80.04
65989;HTU21D;53592;51.402;6.054;2023-04-24T10:53:50;11.28;78.56
65989;HTU21D;53592;51.402;6.054;2023-04-24T10:56:17;11.40;76.96
65989;HTU21D;53592;51.402;6.054;2023-04-24T10:58:45;11.53;76.15
65989;HTU21D;53592;51.402;6.054;2023-04-24T11:01:26;11.71;77.11
65989;HTU21D;53592;51.402;6.054;2023-04-24T11:04:02;11.88;75.84
65989;HTU21D;53592;51.402;6.054;2023-04-24T11:06:36;12.02;75.63
65989;HTU21D;53592;51.402;6.054;2023-04-24T11:09:10;12.15;75.26
65989;HTU21D;53592;51.402;6.054;2023-04-24T11:11:43;12.22;73.28
65989;HTU21D;53592;51.402;6.054;2023-04-24T11:14:09;12.25;72.67
65989;HTU21D;53592;51.402;6.054;2023-04-24T11:16:42;12.20;72.04
65989;HTU21D;53592;51.402;6.054;2023-04-24T11:26:54;11.63;71.55
65989;HTU21D;53592;51.402;6.054;2023-04-24T11:29:21;11.56;72.33
65989;HTU21D;53592;51.402;6.054;2023-04-24T11:31:47;11.51;72.92
65989;HTU21D;53592;51.402;6.054;2023-04-24T11:34:17;11.47;73.15
65989;HTU21D;53592;51.402;6.054;2023-04-24T11:36:45;11.47;72.77
65989;HTU21D;53592;51.402;6.054;2023-04-24T11:39:11;11.52;73.70
65989;HTU21D;53592;51.402;6.054;2023-04-24T11:41:37;11.57;73.87
65989;HTU21D;53592;51.402;6.054;2023-04-24T11:44:06;11.72;73.26
65989;HTU21D;53592;51.402;6.054;2023-04-24T11:46:32;11.77;72.93
65989;HTU21D;53592;51.402;6.054;2023-04-24T11:48:58;11.85;71.94
65989;HTU21D;53592;51.402;6.054;2023-04-24T11:51:26;11.94;71.52
65989;HTU21D;53592;51.402;6.054;2023-04-24T11:53:53;11.96;71.10
65989;HTU21D;53592;51.402;6.054;2023-04-24T11:56:20;11.91;70.61
65989;HTU21D;53592;51.402;6.054;2023-04-24T11:58:47;11.86;70.73
65989;HTU21D;53592;51.402;6.054;2023-04-24T12:01:13;11.83;70.70
65989;HTU21D;53592;51.402;6.054;2023-04-24T12:03:39;11.78;70.57
65989;HTU21D;53592;51.402;6.054;2023-04-24T12:06:06;11.74;71.22
65989;HTU21D;53592;51.402;6.054;2023-04-24T12:08:34;11.67;69.87
65989;HTU21D;53592;51.402;6.054;2023-04-24T12:11:04;11.59;69.65
65989;HTU21D;53592;51.402;6.054;2023-04-24T12:13:30;11.51;69.90
65989;HTU21D;53592;51.402;6.054;2023-04-24T12:16:01;11.42;69.78
65989;HTU21D;53592;51.402;6.054;2023-04-24T12:18:27;11.38;70.14
65989;HTU21D;53592;51.402;6.054;2023-04-24T12:20:52;11.34;69.67
65989;HTU21D;53592;51.402;6.054;2023-04-24T12:23:37;11.34;70.29
65989;HTU21D;53592;51.402;6.054;2023-04-24T12:26:04;11.41;70.83
65989;HTU21D;53592;51.402;6.054;2023-04-24T12:28:37;11.49;70.60
65989;HTU21D;53592;51.402;6.054;2023-04-24T12:31:03;11.53;70.36
65989;HTU21D;53592;51.402;6.054;2023-04-24T12:33:33;11.54;70.44
65989;HTU21D;53592;51.402;6.054;2023-04-24T12:36:00;11.56;70.11
65989;HTU21D;53592;51.402;6.054;2023-04-24T12:38:28;11.62;70.18
65989;HTU21D;53592;51.402;6.054;2023-04-24T12:43:29;11.72;70.28
65989;HTU21D;53592;51.402;6.054;2023-04-24T12:45:55;11.77;69.95
65989;HTU21D;53592;51.402;6.054;2023-04-24T12:48:20;11.83;69.65
65989;HTU21D;53592;51.402;6.054;2023-04-24T12:50:47;11.88;69.08
65989;HTU21D;53592;51.402;6.054;2023-04-24T12:53:13;11.90;68.81
65989;HTU21D;53592;51.402;6.054;2023-04-24T12:55:38;11.90;69.14
65989;HTU21D;53592;51.402;6.054;2023-04-24T12:58:04;11.96;68.49
65989;HTU21D;53592;51.402;6.054;2023-04-24T13:00:29;11.94;68.27
65989;HTU21D;53592;51.402;6.054;2023-04-24T13:02:55;11.97;67.88
65989;HTU21D;53592;51.402;6.054;2023-04-24T13:05:21;12.02;68.21
65989;HTU21D;53592;51.402;6.054;2023-04-24T13:07:46;12.12;68.10
65989;HTU21D;53592;51.402;6.054;2023-04-24T13:10:12;12.21;67.12
65989;HTU21D;53592;51.402;6.054;2023-04-24T13:12:38;12.30;66.85
65989;HTU21D;53592;51.402;6.054;2023-04-24T13:15:05;12.33;65.85
65989;HTU21D;53592;51.402;6.054;2023-04-24T13:17:30;12.37;65.87
65989;HTU21D;53592;51.402;6.054;2023-04-24T13:19:56;12.41;65.78
65989;HTU21D;53592;51.402;6.054;2023-04-24T13:22:21;12.46;65.07
65989;HTU21D;53592;51.402;6.054;2023-04-24T13:24:47;12.47;65.34
65989;HTU21D;53592;51.402;6.054;2023-04-24T13:27:16;12.53;64.67
65989;HTU21D;53592;51.402;6.054;2023-04-24T13:29:41;12.60;64.86
65989;HTU21D;53592;51.402;6.054;2023-04-24T13:32:08;12.70;65.09
65989;HTU21D;53592;51.402;6.054;2023-04-24T13:34:33;12.76;64.52
65989;HTU21D;53592;51.402;6.054;2023-04-24T13:37:00;12.82;63.84
65989;HTU21D;53592;51.402;6.054;2023-04-24T13:39:26;12.81;63.83
65989;HTU21D;53592;51.402;6.054;2023-04-24T13:41:53;12.88;62.97
65989;HTU21D;53592;51.402;6.054;2023-04-24T13:44:20;12.85;62.82
65989;HTU21D;53592;51.402;6.054;2023-04-24T13:46:47;12.79;63.03
65989;HTU21D;53592;51.402;6.054;2023-04-24T13:49:14;12.84;63.18
65989;HTU21D;53592;51.402;6.054;2023-04-24T13:51:40;12.77;62.92
65989;HTU21D;53592;51.402;6.054;2023-04-24T13:54:06;12.70;62.72
65989;HTU21D;53592;51.402;6.054;2023-04-24T13:56:31;12.61;62.54
65989;HTU21D;53592;51.402;6.054;2023-04-24T13:58:57;12.56;62.95
65989;HTU21D;53592;51.402;6.054;2023-04-24T14:01:23;12.44;62.65
65989;HTU21D;53592;51.402;6.054;2023-04-24T14:03:50;12.30;62.86
65989;HTU21D;53592;51.402;6.054;2023-04-24T14:06:17;12.21;62.65
65989;HTU21D;53592;51.402;6.054;2023-04-24T14:08:43;12.18;63.27
65989;HTU21D;53592;51.402;6.054;2023-04-24T14:11:08;12.07;64.12
65989;HTU21D;53592;51.402;6.054;2023-04-24T14:13:35;12.14;64.52
65989;HTU21D;53592;51.402;6.054;2023-04-24T14:16:00;12.16;65.07
65989;HTU21D;53592;51.402;6.054;2023-04-24T14:18:26;12.20;64.63
65989;HTU21D;53592;51.402;6.054;2023-04-24T14:20:52;12.15;64.93
65989;HTU21D;53592;51.402;6.054;2023-04-24T14:23:18;12.10;65.30
65989;HTU21D;53592;51.402;6.054;2023-04-24T14:25:43;12.07;65.43
65989;HTU21D;53592;51.402;6.054;2023-04-24T14:28:09;11.96;66.20
65989;HTU21D;53592;51.402;6.054;2023-04-24T14:30:48;11.90;66.99
65989;HTU21D;53592;51.402;6.054;2023-04-24T14:33:14;11.79;68.68
65989;HTU21D;53592;51.402;6.054;2023-04-24T14:35:40;11.76;68.73
65989;HTU21D;53592;51.402;6.054;2023-04-24T14:38:08;11.81;69.37
65989;HTU21D;53592;51.402;6.054;2023-04-24T14:40:34;11.88;69.62
65989;HTU21D;53592;51.402;6.054;2023-04-24T14:42:59;11.96;69.59
65989;HTU21D;53592;51.402;6.054;2023-04-24T14:45:28;12.04;69.07
65989;HTU21D;53592;51.402;6.054;2023-04-24T14:48:02;12.08;68.85
65989;HTU21D;53592;51.402;6.054;2023-04-24T14:50:34;12.12;68.71
65989;HTU21D;53592;51.402;6.054;2023-04-24T14:53:15;12.17;68.59
65989;HTU21D;53592;51.402;6.054;2023-04-24T14:55:40;12.25;68.62
65989;HTU21D;53592;51.402;6.054;2023-04-24T14:58:08;12.31;68.50
65989;HTU21D;53592;51.402;6.054;2023-04-24T15:00:34;12.38;66.70
65989;HTU21D;53592;51.402;6.054;2023-04-24T15:03:05;12.34;66.71
65989;HTU21D;53592;51.402;6.054;2023-04-24T15:05:31;12.33;67.02
65989;HTU21D;53592;51.402;6.054;2023-04-24T15:07:56;12.34;67.37
65989;HTU21D;53592;51.402;6.054;2023-04-24T15:10:22;12.37;67.09
65989;HTU21D;53592;51.402;6.054;2023-04-24T15:12:49;12.38;66.73
65989;HTU21D;53592;51.402;6.054;2023-04-24T15:15:14;12.34;67.08
65989;HTU21D;53592;51.402;6.054;2023-04-24T15:17:40;12.35;67.94
65989;HTU21D;53592;51.402;6.054;2023-04-24T15:20:06;12.33;67.64
65989;HTU21D;53592;51.402;6.054;2023-04-24T15:22:32;12.29;67.01
65989;HTU21D;53592;51.402;6.054;2023-04-24T15:24:57;12.23;66.81
65989;HTU21D;53592;51.402;6.054;2023-04-24T15:27:23;12.32;67.21
65989;HTU21D;53592;51.402;6.054;2023-04-24T15:29:48;12.37;67.32
65989;HTU21D;53592;51.402;6.054;2023-04-24T15:32:14;12.50;67.50
65989;HTU21D;53592;51.402;6.054;2023-04-24T15:34:39;12.59;66.97
65989;HTU21D;53592;51.402;6.054;2023-04-24T15:37:05;12.60;66.43
65989;HTU21D;53592;51.402;6.054;2023-04-24T15:39:31;12.57;65.59
65989;HTU21D;53592;51.402;6.054;2023-04-24T15:41:56;12.55;65.06
65989;HTU21D;53592;51.402;6.054;2023-04-24T15:44:22;12.51;65.38
65989;HTU21D;53592;51.402;6.054;2023-04-24T15:46:48;12.57;65.13
65989;HTU21D;53592;51.402;6.054;2023-04-24T15:49:14;12.63;65.50
65989;HTU21D;53592;51.402;6.054;2023-04-24T15:51:39;12.67;65.11
65989;HTU21D;53592;51.402;6.054;2023-04-24T15:54:05;12.72;64.08
65989;HTU21D;53592;51.402;6.054;2023-04-24T15:56:30;12.78;62.98